sensor_id;sensor_type;location;lat;lon;timestamp;temperature;humidity
37646;DHT22;23489;49.600;6.138;2024-01-27T00:01:33;0.00;99.90
37646;DHT22;23489;49.600;6.138;2024-01-27T00:03:58;0.00;99.90
37646;DHT22;23489;49.600;6.138;2024-01-27T00:06:24;0.00;99.90
37646;DHT22;23489;49.600;6.138;2024-01-27T00:08:50;0.00;99.90
37646;DHT22;23489;49.600;6.138;2024-01-27T00:11:16;-0.10;99.90
37646;DHT22;23489;49.600;6.138;2024-01-27T00:13:41;-0.10;99.90
37646;DHT22;23489;49.600;6.138;2024-01-27T00:16:08;-0.20;99.90
37646;DHT22;23489;49.600;6.138;2024-01-27T00:18:36;-0.20;99.90
37646;DHT22;23489;49.600;6.138;2024-01-27T00:21:02;-0.20;99.90
37646;DHT22;23489;49.600;6.138;2024-01-27T00:23:28;-0.30;99.90
37646;DHT22;23489;49.600;6.138;2024-01-27T00:25:53;-0.30;99.90
37646;DHT22;23489;49.600;6.138;2024-01-27T00:28:19;-0.40;99.90
37646;DHT22;23489;49.600;6.138;2024-01-27T00:30:44;-0.30;99.90
37646;DHT22;23489;49.600;6.138;2024-01-27T00:33:10;-0.40;99.90
37646;DHT22;23489;49.600;6.138;2024-01-27T00:35:36;-0.40;99.90
37646;DHT22;23489;49.600;6.138;2024-01-27T00:38:01;-0.40;99.90
37646;DHT22;23489;49.600;6.138;2024-01-27T00:40:28;-0.40;99.90
37646;DHT22;23489;49.600;6.138;2024-01-27T00:42:53;-0.40;99.90
37646;DHT22;23489;49.600;6.138;2024-01-27T00:45:20;-0.40;99.90
37646;DHT22;23489;49.600;6.138;2024-01-27T00:47:51;-0.40;99.90
37646;DHT22;23489;49.600;6.138;2024-01-27T00:50:17;-0.50;99.90
37646;DHT22;23489;49.600;6.138;2024-01-27T00:52:42;-0.50;99.90
37646;DHT22;23489;49.600;6.138;2024-01-27T00:55:08;-0.50;99.90
37646;DHT22;23489;49.600;6.138;2024-01-27T00:57:36;-0.50;99.90
37646;DHT22;23489;49.600;6.138;2024-01-27T01:00:06;-0.50;99.90
37646;DHT22;23489;49.600;6.138;2024-01-27T01:02:32;-0.50;99.90
37646;DHT22;23489;49.600;6.138;2024-01-27T01:04:58;-0.60;99.90
37646;DHT22;23489;49.600;6.138;2024-01-27T01:07:24;-0.60;99.90
37646;DHT22;23489;49.600;6.138;2024-01-27T01:09:49;-0.50;99.90
37646;DHT22;23489;49.600;6.138;2024-01-27T01:12:15;-0.50;99.90
37646;DHT22;23489;49.600;6.138;2024-01-27T01:14:41;-0.60;99.90
37646;DHT22;23489;49.600;6.138;2024-01-27T01:17:07;-0.50;99.90
37646;DHT22;23489;49.600;6.138;2024-01-27T01:19:33;-0.50;99.90
37646;DHT22;23489;49.600;6.138;2024-01-27T01:21:59;-0.50;99.90
37646;DHT22;23489;49.600;6.138;2024-01-27T01:24:24;-0.50;99.90
37646;DHT22;23489;49.600;6.138;2024-01-27T01:26:50;-0.50;99.90
37646;DHT22;23489;49.600;6.138;2024-01-27T01:29:16;-0.50;99.90
37646;DHT22;23489;49.600;6.138;2024-01-27T01:31:45;-0.50;99.90
37646;DHT22;23489;49.600;6.138;2024-01-27T01:34:10;-0.50;99.90
37646;DHT22;23489;49.600;6.138;2024-01-27T01:36:36;-0.50;99.90
37646;DHT22;23489;49.600;6.138;2024-01-27T01:39:03;-0.40;99.90
37646;DHT22;23489;49.600;6.138;2024-01-27T01:41:28;-0.40;99.90
37646;DHT22;23489;49.600;6.138;2024-01-27T01:43:54;-0.50;99.90
37646;DHT22;23489;49.600;6.138;2024-01-27T01:46:22;-0.50;99.90
37646;DHT22;23489;49.600;6.138;2024-01-27T01:48:49;-0.50;99.90
37646;DHT22;23489;49.600;6.138;2024-01-27T01:51:16;-0.60;99.90
37646;DHT22;23489;49.600;6.138;2024-01-27T01:53:42;-0.60;99.90
37646;DHT22;23489;49.600;6.138;2024-01-27T01:56:08;-0.70;99.90
37646;DHT22;23489;49.600;6.138;2024-01-27T01:58:34;-0.70;99.90
37646;DHT22;23489;49.600;6.138;2024-01-27T02:01:00;-0.70;99.90
37646;DHT22;23489;49.600;6.138;2024-01-27T02:03:27;-0.70;99.90
37646;DHT22;23489;49.600;6.138;2024-01-27T02:05:52;-0.80;99.90
37646;DHT22;23489;49.600;6.138;2024-01-27T02:08:18;-0.80;99.90
37646;DHT22;23489;49.600;6.138;2024-01-27T02:10:44;-0.80;99.90
37646;DHT22;23489;49.600;6.138;2024-01-27T02:13:23;-0.90;99.90
37646;DHT22;23489;49.600;6.138;2024-01-27T02:15:50;-0.90;99.90
37646;DHT22;23489;49.600;6.138;2024-01-27T02:18:16;-0.90;99.90
37646;DHT22;23489;49.600;6.138;2024-01-27T02:20:42;-0.80;99.90
37646;DHT22;23489;49.600;6.138;2024-01-27T02:23:08;-0.90;99.90
37646;DHT22;23489;49.600;6.138;2024-01-27T02:25:34;-0.90;99.90
37646;DHT22;23489;49.600;6.138;2024-01-27T02:28:00;-1.00;99.90
37646;DHT22;23489;49.600;6.138;2024-01-27T02:30:28;-1.00;99.90
37646;DHT22;23489;49.600;6.138;2024-01-27T02:32:55;-1.00;99.90
37646;DHT22;23489;49.600;6.138;2024-01-27T02:35:21;-1.10;99.90
37646;DHT22;23489;49.600;6.138;2024-01-27T02:37:46;-1.10;99.90
37646;DHT22;23489;49.600;6.138;2024-01-27T02:40:12;-1.10;99.90
37646;DHT22;23489;49.600;6.138;2024-01-27T02:42:38;-1.10;99.90
37646;DHT22;23489;49.600;6.138;2024-01-27T02:45:04;-1.10;99.90
37646;DHT22;23489;49.600;6.138;2024-01-27T02:47:30;-1.10;99.90
37646;DHT22;23489;49.600;6.138;2024-01-27T02:49:56;-1.10;99.90
37646;DHT22;23489;49.600;6.138;2024-01-27T02:52:21;-1.10;99.90
37646;DHT22;23489;49.600;6.138;2024-01-27T02:54:47;-1.10;99.90
37646;DHT22;23489;49.600;6.138;2024-01-27T02:57:13;-1.10;99.90
37646;DHT22;23489;49.600;6.138;2024-01-27T02:59:41;-1.10;99.90
37646;DHT22;23489;49.600;6.138;2024-01-27T03:02:06;-1.10;99.90
37646;DHT22;23489;49.600;6.138;2024-01-27T03:04:32;-1.10;99.90
37646;DHT22;23489;49.600;6.138;2024-01-27T03:06:57;-1.10;99.90
37646;DHT22;23489;49.600;6.138;2024-01-27T03:09:23;-1.20;99.90
37646;DHT22;23489;49.600;6.138;2024-01-27T03:11:49;-1.20;99.90
37646;DHT22;23489;49.600;6.138;2024-01-27T03:14:14;-1.10;99.90
37646;DHT22;23489;49.600;6.138;2024-01-27T03:16:40;-1.20;99.90
37646;DHT22;23489;49.600;6.138;2024-01-27T03:19:06;-1.20;99.90
37646;DHT22;23489;49.600;6.138;2024-01-27T03:21:32;-1.20;99.90
37646;DHT22;23489;49.600;6.138;2024-01-27T03:23:58;-1.20;99.90
37646;DHT22;23489;49.600;6.138;2024-01-27T03:26:23;-1.20;99.90
37646;DHT22;23489;49.600;6.138;2024-01-27T03:28:49;-1.20;99.90
37646;DHT22;23489;49.600;6.138;2024-01-27T03:31:15;-1.20;99.90
37646;DHT22;23489;49.600;6.138;2024-01-27T03:33:40;-1.30;99.90
37646;DHT22;23489;49.600;6.138;2024-01-27T03:36:10;-1.30;99.90
37646;DHT22;23489;49.600;6.138;2024-01-27T03:38:37;-1.30;99.90
37646;DHT22;23489;49.600;6.138;2024-01-27T03:41:03;-1.30;99.90
37646;DHT22;23489;49.600;6.138;2024-01-27T03:43:29;-1.30;99.90
37646;DHT22;23489;49.600;6.138;2024-01-27T03:45:56;-1.30;99.90
37646;DHT22;23489;49.600;6.138;2024-01-27T03:48:22;-1.30;99.90
37646;DHT22;23489;49.600;6.138;2024-01-27T03:50:48;-1.30;99.90
37646;DHT22;23489;49.600;6.138;2024-01-27T03:53:13;-1.30;99.90
37646;DHT22;23489;49.600;6.138;2024-01-27T03:55:39;-1.30;99.90
37646;DHT22;23489;49.600;6.138;2024-01-27T03:58:05;-1.30;99.90
37646;DHT22;23489;49.600;6.138;2024-01-27T04:00:31;-1.30;99.90
37646;DHT22;23489;49.600;6.138;2024-01-27T04:03:01;-1.30;99.90
37646;DHT22;23489;49.600;6.138;2024-01-27T04:05:28;-1.30;99.90
37646;DHT22;23489;49.600;6.138;2024-01-27T04:07:54;-1.30;99.90
37646;DHT22;23489;49.600;6.138;2024-01-27T04:10:20;-1.30;99.90
37646;DHT22;23489;49.600;6.138;2024-01-27T04:12:46;-1.30;99.90
37646;DHT22;23489;49.600;6.138;2024-01-27T04:15:12;-1.40;99.90
37646;DHT22;23489;49.600;6.138;2024-01-27T04:17:38;-1.40;99.90
37646;DHT22;23489;49.600;6.138;2024-01-27T04:20:04;-1.40;99.90
37646;DHT22;23489;49.600;6.138;2024-01-27T04:22:30;-1.40;99.90
37646;DHT22;23489;49.600;6.138;2024-01-27T04:24:56;-1.40;99.90
37646;DHT22;23489;49.600;6.138;2024-01-27T04:27:22;-1.40;99.90
37646;DHT22;23489;49.600;6.138;2024-01-27T04:29:50;-1.50;99.90
37646;DHT22;23489;49.600;6.138;2024-01-27T04:32:16;-1.50;99.90
37646;DHT22;23489;49.600;6.138;2024-01-27T04:34:41;-1.40;99.90
37646;DHT22;23489;49.600;6.138;2024-01-27T04:37:07;-1.40;99.90
37646;DHT22;23489;49.600;6.138;2024-01-27T04:39:32;-1.50;99.90
37646;DHT22;23489;49.600;6.138;2024-01-27T04:41:58;-1.50;99.90
37646;DHT22;23489;49.600;6.138;2024-01-27T04:44:24;-1.50;99.90
37646;DHT22;23489;49.600;6.138;2024-01-27T04:46:49;-1.50;99.90
37646;DHT22;23489;49.600;6.138;2024-01-27T04:49:15;-1.50;99.90
37646;DHT22;23489;49.600;6.138;2024-01-27T04:51:41;-1.50;99.90
37646;DHT22;23489;49.600;6.138;2024-01-27T04:54:07;-1.50;99.90
37646;DHT22;23489;49.600;6.138;2024-01-27T04:56:33;-1.50;99.90
37646;DHT22;23489;49.600;6.138;2024-01-27T04:58:59;-1.50;99.90
37646;DHT22;23489;49.600;6.138;2024-01-27T05:01:24;-1.50;99.90
37646;DHT22;23489;49.600;6.138;2024-01-27T05:03:50;-1.60;99.90
37646;DHT22;23489;49.600;6.138;2024-01-27T05:06:16;-1.60;99.90
37646;DHT22;23489;49.600;6.138;2024-01-27T05:08:42;-1.60;99.90
37646;DHT22;23489;49.600;6.138;2024-01-27T05:11:09;-1.60;99.90
37646;DHT22;23489;49.600;6.138;2024-01-27T05:13:35;-1.70;99.90
37646;DHT22;23489;49.600;6.138;2024-01-27T05:16:03;-1.70;99.90
37646;DHT22;23489;49.600;6.138;2024-01-27T05:18:29;-1.70;99.90
37646;DHT22;23489;49.600;6.138;2024-01-27T05:20:54;-1.70;99.90
37646;DHT22;23489;49.600;6.138;2024-01-27T05:23:20;-1.70;99.90
37646;DHT22;23489;49.600;6.138;2024-01-27T05:25:45;-1.70;99.90
37646;DHT22;23489;49.600;6.138;2024-01-27T05:28:11;-1.70;99.90
37646;DHT22;23489;49.600;6.138;2024-01-27T05:30:37;-1.70;99.90
37646;DHT22;23489;49.600;6.138;2024-01-27T05:33:02;-1.70;99.90
37646;DHT22;23489;49.600;6.138;2024-01-27T05:35:28;-1.70;99.90
37646;DHT22;23489;49.600;6.138;2024-01-27T05:37:54;-1.60;99.90
37646;DHT22;23489;49.600;6.138;2024-01-27T05:40:19;-1.50;99.90
37646;DHT22;23489;49.600;6.138;2024-01-27T05:42:45;-1.60;99.90
37646;DHT22;23489;49.600;6.138;2024-01-27T05:45:11;-1.60;99.90
37646;DHT22;23489;49.600;6.138;2024-01-27T05:47:37;-1.60;99.90
37646;DHT22;23489;49.600;6.138;2024-01-27T05:50:03;-1.60;99.90
37646;DHT22;23489;49.600;6.138;2024-01-27T05:52:30;-1.60;99.90
37646;DHT22;23489;49.600;6.138;2024-01-27T05:54:55;-1.70;99.90
37646;DHT22;23489;49.600;6.138;2024-01-27T05:57:21;-1.70;99.90
37646;DHT22;23489;49.600;6.138;2024-01-27T05:59:46;-1.70;99.90
37646;DHT22;23489;49.600;6.138;2024-01-27T06:02:12;-1.70;99.90
37646;DHT22;23489;49.600;6.138;2024-01-27T06:04:38;-1.70;99.90
37646;DHT22;23489;49.600;6.138;2024-01-27T06:07:03;-1.70;99.90
37646;DHT22;23489;49.600;6.138;2024-01-27T06:09:29;-1.70;99.90
37646;DHT22;23489;49.600;6.138;2024-01-27T06:11:59;-1.70;99.90
37646;DHT22;23489;49.600;6.138;2024-01-27T06:14:24;-1.70;99.90
37646;DHT22;23489;49.600;6.138;2024-01-27T06:16:50;-1.70;99.90
37646;DHT22;23489;49.600;6.138;2024-01-27T06:19:16;-1.70;99.90
37646;DHT22;23489;49.600;6.138;2024-01-27T06:21:42;-1.60;99.90
37646;DHT22;23489;49.600;6.138;2024-01-27T06:24:08;-1.60;99.90
37646;DHT22;23489;49.600;6.138;2024-01-27T06:26:33;-1.60;99.90
37646;DHT22;23489;49.600;6.138;2024-01-27T06:28:59;-1.60;99.90
37646;DHT22;23489;49.600;6.138;2024-01-27T06:31:25;-1.60;99.90
37646;DHT22;23489;49.600;6.138;2024-01-27T06:33:51;-1.60;99.90
37646;DHT22;23489;49.600;6.138;2024-01-27T06:36:16;-1.70;99.90
37646;DHT22;23489;49.600;6.138;2024-01-27T06:38:42;-1.60;99.90
37646;DHT22;23489;49.600;6.138;2024-01-27T06:41:08;-1.60;99.90
37646;DHT22;23489;49.600;6.138;2024-01-27T06:43:33;-1.70;99.90
37646;DHT22;23489;49.600;6.138;2024-01-27T06:45:59;-1.70;99.90
37646;DHT22;23489;49.600;6.138;2024-01-27T06:48:25;-1.70;99.90
37646;DHT22;23489;49.600;6.138;2024-01-27T06:50:51;-1.70;99.90
37646;DHT22;23489;49.600;6.138;2024-01-27T06:53:18;-1.70;99.90
37646;DHT22;23489;49.600;6.138;2024-01-27T06:55:44;-1.70;99.90
37646;DHT22;23489;49.600;6.138;2024-01-27T06:58:10;-1.70;99.90
37646;DHT22;23489;49.600;6.138;2024-01-27T07:00:35;-1.80;99.90
37646;DHT22;23489;49.600;6.138;2024-01-27T07:03:01;-1.80;99.90
37646;DHT22;23489;49.600;6.138;2024-01-27T07:05:28;-1.80;99.90
37646;DHT22;23489;49.600;6.138;2024-01-27T07:07:53;-1.90;99.90
37646;DHT22;23489;49.600;6.138;2024-01-27T07:10:19;-1.90;99.90
37646;DHT22;23489;49.600;6.138;2024-01-27T07:12:44;-1.90;99.90
37646;DHT22;23489;49.600;6.138;2024-01-27T07:15:10;-1.90;99.90
37646;DHT22;23489;49.600;6.138;2024-01-27T07:17:36;-1.90;99.90
37646;DHT22;23489;49.600;6.138;2024-01-27T07:20:01;-2.00;99.90
37646;DHT22;23489;49.600;6.138;2024-01-27T07:22:27;-2.00;99.90
37646;DHT22;23489;49.600;6.138;2024-01-27T07:24:53;-1.90;99.90
37646;DHT22;23489;49.600;6.138;2024-01-27T07:27:19;-1.80;99.90
37646;DHT22;23489;49.600;6.138;2024-01-27T07:29:44;-1.50;99.90
37646;DHT22;23489;49.600;6.138;2024-01-27T07:32:13;-1.50;99.90
37646;DHT22;23489;49.600;6.138;2024-01-27T07:34:44;-1.50;99.90
37646;DHT22;23489;49.600;6.138;2024-01-27T07:37:10;-1.50;99.90
37646;DHT22;23489;49.600;6.138;2024-01-27T07:39:36;-1.50;99.90
37646;DHT22;23489;49.600;6.138;2024-01-27T07:42:02;-1.50;99.90
37646;DHT22;23489;49.600;6.138;2024-01-27T07:44:28;-1.50;99.90
37646;DHT22;23489;49.600;6.138;2024-01-27T07:46:54;-1.50;99.90
37646;DHT22;23489;49.600;6.138;2024-01-27T07:49:19;-1.50;99.90
37646;DHT22;23489;49.600;6.138;2024-01-27T07:51:45;-1.50;99.90
37646;DHT22;23489;49.600;6.138;2024-01-27T07:54:11;-1.50;99.90
37646;DHT22;23489;49.600;6.138;2024-01-27T07:56:38;-1.50;99.90
37646;DHT22;23489;49.600;6.138;2024-01-27T07:59:03;-1.40;99.90
37646;DHT22;23489;49.600;6.138;2024-01-27T08:01:29;-1.40;99.90
37646;DHT22;23489;49.600;6.138;2024-01-27T08:03:55;-1.40;99.90
37646;DHT22;23489;49.600;6.138;2024-01-27T08:06:28;-1.40;99.90
37646;DHT22;23489;49.600;6.138;2024-01-27T08:08:57;-1.40;99.90
37646;DHT22;23489;49.600;6.138;2024-01-27T08:11:23;-1.40;99.90
37646;DHT22;23489;49.600;6.138;2024-01-27T08:13:50;-1.40;99.90
37646;DHT22;23489;49.600;6.138;2024-01-27T08:16:15;-1.30;99.90
37646;DHT22;23489;49.600;6.138;2024-01-27T08:18:42;-1.30;99.90
37646;DHT22;23489;49.600;6.138;2024-01-27T08:21:10;-1.20;99.90
37646;DHT22;23489;49.600;6.138;2024-01-27T08:23:36;-1.00;99.90
37646;DHT22;23489;49.600;6.138;2024-01-27T08:26:02;-1.00;99.90
37646;DHT22;23489;49.600;6.138;2024-01-27T08:28:28;-0.80;99.90
37646;DHT22;23489;49.600;6.138;2024-01-27T08:30:53;-0.70;99.90
37646;DHT22;23489;49.600;6.138;2024-01-27T08:33:19;-0.60;99.90
37646;DHT22;23489;49.600;6.138;2024-01-27T08:35:48;-0.40;99.90
37646;DHT22;23489;49.600;6.138;2024-01-27T08:38:14;0.10;99.90
37646;DHT22;23489;49.600;6.138;2024-01-27T08:40:40;1.30;99.90
37646;DHT22;23489;49.600;6.138;2024-01-27T08:43:05;3.20;99.90
37646;DHT22;23489;49.600;6.138;2024-01-27T08:45:31;5.10;99.90
37646;DHT22;23489;49.600;6.138;2024-01-27T08:47:58;6.00;99.90
37646;DHT22;23489;49.600;6.138;2024-01-27T08:50:23;6.30;99.90
37646;DHT22;23489;49.600;6.138;2024-01-27T08:52:49;5.30;99.90
37646;DHT22;23489;49.600;6.138;2024-01-27T08:55:15;4.80;99.90
37646;DHT22;23489;49.600;6.138;2024-01-27T08:57:45;5.40;99.90
37646;DHT22;23489;49.600;6.138;2024-01-27T09:00:12;6.90;99.90
37646;DHT22;23489;49.600;6.138;2024-01-27T09:07:31;8.20;99.90
37646;DHT22;23489;49.600;6.138;2024-01-27T09:09:57;11.40;99.90
37646;DHT22;23489;49.600;6.138;2024-01-27T09:12:22;12.20;99.90
37646;DHT22;23489;49.600;6.138;2024-01-27T09:14:48;12.50;99.90
37646;DHT22;23489;49.600;6.138;2024-01-27T09:17:14;11.60;99.90
37646;DHT22;23489;49.600;6.138;2024-01-27T09:19:40;10.20;99.90
37646;DHT22;23489;49.600;6.138;2024-01-27T09:22:06;10.00;99.90
37646;DHT22;23489;49.600;6.138;2024-01-27T09:24:32;10.10;99.90
37646;DHT22;23489;49.600;6.138;2024-01-27T09:26:57;10.10;99.90
37646;DHT22;23489;49.600;6.138;2024-01-27T09:31:49;9.20;99.90
37646;DHT22;23489;49.600;6.138;2024-01-27T09:34:15;6.80;99.90
37646;DHT22;23489;49.600;6.138;2024-01-27T09:36:40;6.00;99.90
37646;DHT22;23489;49.600;6.138;2024-01-27T09:39:06;5.40;99.90
37646;DHT22;23489;49.600;6.138;2024-01-27T09:41:32;4.90;99.90
37646;DHT22;23489;49.600;6.138;2024-01-27T09:44:01;4.50;99.90
37646;DHT22;23489;49.600;6.138;2024-01-27T09:46:29;4.10;99.90
37646;DHT22;23489;49.600;6.138;2024-01-27T09:48:55;3.80;99.90
37646;DHT22;23489;49.600;6.138;2024-01-27T09:51:21;3.70;99.90
37646;DHT22;23489;49.600;6.138;2024-01-27T09:53:48;4.00;99.90
37646;DHT22;23489;49.600;6.138;2024-01-27T09:56:15;5.40;99.90
37646;DHT22;23489;49.600;6.138;2024-01-27T09:58:43;7.30;99.90
37646;DHT22;23489;49.600;6.138;2024-01-27T10:03:36;9.20;99.90
37646;DHT22;23489;49.600;6.138;2024-01-27T10:06:07;11.50;99.90
37646;DHT22;23489;49.600;6.138;2024-01-27T10:08:33;12.30;99.90
37646;DHT22;23489;49.600;6.138;2024-01-27T10:10:58;13.60;99.90
37646;DHT22;23489;49.600;6.138;2024-01-27T10:13:25;13.80;99.70
37646;DHT22;23489;49.600;6.138;2024-01-27T10:23:19;14.50;99.40
37646;DHT22;23489;49.600;6.138;2024-01-27T10:25:45;12.80;98.40
37646;DHT22;23489;49.600;6.138;2024-01-27T10:28:11;12.00;99.90
37646;DHT22;23489;49.600;6.138;2024-01-27T10:30:37;12.70;99.90
37646;DHT22;23489;49.600;6.138;2024-01-27T10:33:03;14.20;98.50
37646;DHT22;23489;49.600;6.138;2024-01-27T10:35:29;15.10;96.70
37646;DHT22;23489;49.600;6.138;2024-01-27T10:37:55;15.20;95.10
37646;DHT22;23489;49.600;6.138;2024-01-27T10:40:21;15.10;95.90
37646;DHT22;23489;49.600;6.138;2024-01-27T10:42:59;14.80;95.00
37646;DHT22;23489;49.600;6.138;2024-01-27T10:45:25;14.00;96.20
37646;DHT22;23489;49.600;6.138;2024-01-27T10:47:51;13.30;96.90
37646;DHT22;23489;49.600;6.138;2024-01-27T10:50:18;12.80;97.50
37646;DHT22;23489;49.600;6.138;2024-01-27T10:52:44;13.10;97.60
37646;DHT22;23489;49.600;6.138;2024-01-27T10:55:12;13.90;97.00
37646;DHT22;23489;49.600;6.138;2024-01-27T10:57:39;13.50;96.80
37646;DHT22;23489;49.600;6.138;2024-01-27T11:00:06;13.60;96.20
37646;DHT22;23489;49.600;6.138;2024-01-27T11:02:33;12.90;96.50
37646;DHT22;23489;49.600;6.138;2024-01-27T11:05:03;13.10;95.90
37646;DHT22;23489;49.600;6.138;2024-01-27T11:07:34;12.40;96.20
37646;DHT22;23489;49.600;6.138;2024-01-27T11:10:00;11.30;96.90
37646;DHT22;23489;49.600;6.138;2024-01-27T11:12:26;10.00;99.10
37646;DHT22;23489;49.600;6.138;2024-01-27T11:14:53;9.00;99.90
37646;DHT22;23489;49.600;6.138;2024-01-27T11:17:19;7.80;99.90
37646;DHT22;23489;49.600;6.138;2024-01-27T11:19:45;7.20;99.90
37646;DHT22;23489;49.600;6.138;2024-01-27T11:22:37;6.70;99.90
37646;DHT22;23489;49.600;6.138;2024-01-27T11:27:41;6.00;99.90
37646;DHT22;23489;49.600;6.138;2024-01-27T11:32:48;5.50;99.90
37646;DHT22;23489;49.600;6.138;2024-01-27T11:35:14;5.40;99.90
37646;DHT22;23489;49.600;6.138;2024-01-27T11:37:42;5.40;99.90
37646;DHT22;23489;49.600;6.138;2024-01-27T11:40:08;5.30;99.90
37646;DHT22;23489;49.600;6.138;2024-01-27T11:42:34;5.40;99.90
37646;DHT22;23489;49.600;6.138;2024-01-27T11:45:00;5.40;99.90
37646;DHT22;23489;49.600;6.138;2024-01-27T11:47:27;5.30;99.90
37646;DHT22;23489;49.600;6.138;2024-01-27T11:49:54;5.30;99.90
37646;DHT22;23489;49.600;6.138;2024-01-27T11:52:21;5.30;99.90
37646;DHT22;23489;49.600;6.138;2024-01-27T11:54:54;5.20;99.90
37646;DHT22;23489;49.600;6.138;2024-01-27T11:57:20;5.30;99.90
37646;DHT22;23489;49.600;6.138;2024-01-27T11:59:45;5.30;99.90
37646;DHT22;23489;49.600;6.138;2024-01-27T12:02:11;5.30;99.90
37646;DHT22;23489;49.600;6.138;2024-01-27T12:04:37;5.30;99.90
37646;DHT22;23489;49.600;6.138;2024-01-27T12:07:03;5.30;99.90
37646;DHT22;23489;49.600;6.138;2024-01-27T12:09:29;5.30;99.90
37646;DHT22;23489;49.600;6.138;2024-01-27T12:11:55;5.40;99.90
37646;DHT22;23489;49.600;6.138;2024-01-27T12:14:20;5.40;99.90
37646;DHT22;23489;49.600;6.138;2024-01-27T12:16:46;5.40;99.90
37646;DHT22;23489;49.600;6.138;2024-01-27T12:19:13;5.50;99.90
37646;DHT22;23489;49.600;6.138;2024-01-27T12:21:46;5.50;99.90
37646;DHT22;23489;49.600;6.138;2024-01-27T12:24:16;5.50;99.90
37646;DHT22;23489;49.600;6.138;2024-01-27T12:26:42;5.40;99.90
37646;DHT22;23489;49.600;6.138;2024-01-27T12:29:08;5.40;99.90
37646;DHT22;23489;49.600;6.138;2024-01-27T12:31:34;5.50;99.90
37646;DHT22;23489;49.600;6.138;2024-01-27T12:33:59;5.50;99.90
37646;DHT22;23489;49.600;6.138;2024-01-27T12:36:25;5.50;99.90
37646;DHT22;23489;49.600;6.138;2024-01-27T12:38:58;5.50;99.90
37646;DHT22;23489;49.600;6.138;2024-01-27T12:41:28;5.40;99.90
37646;DHT22;23489;49.600;6.138;2024-01-27T12:43:55;5.40;99.90
37646;DHT22;23489;49.600;6.138;2024-01-27T12:46:21;5.50;99.90
37646;DHT22;23489;49.600;6.138;2024-01-27T12:48:47;5.50;99.90
37646;DHT22;23489;49.600;6.138;2024-01-27T12:51:12;5.60;99.90
37646;DHT22;23489;49.600;6.138;2024-01-27T12:53:40;5.70;99.90
37646;DHT22;23489;49.600;6.138;2024-01-27T12:56:09;5.70;99.90
37646;DHT22;23489;49.600;6.138;2024-01-27T12:58:35;5.70;99.90
37646;DHT22;23489;49.600;6.138;2024-01-27T13:01:01;5.80;99.90
37646;DHT22;23489;49.600;6.138;2024-01-27T13:03:26;5.90;99.90
37646;DHT22;23489;49.600;6.138;2024-01-27T13:05:54;5.90;99.90
37646;DHT22;23489;49.600;6.138;2024-01-27T13:08:20;6.00;99.90
37646;DHT22;23489;49.600;6.138;2024-01-27T13:10:46;6.10;99.90
37646;DHT22;23489;49.600;6.138;2024-01-27T13:13:12;6.20;99.90
37646;DHT22;23489;49.600;6.138;2024-01-27T13:15:38;6.20;99.90
37646;DHT22;23489;49.600;6.138;2024-01-27T13:18:04;6.30;99.90
37646;DHT22;23489;49.600;6.138;2024-01-27T13:20:29;6.40;99.90
37646;DHT22;23489;49.600;6.138;2024-01-27T13:22:55;6.50;99.90
37646;DHT22;23489;49.600;6.138;2024-01-27T13:25:21;6.60;99.90
37646;DHT22;23489;49.600;6.138;2024-01-27T13:27:47;6.60;99.90
37646;DHT22;23489;49.600;6.138;2024-01-27T13:30:13;6.70;99.90
37646;DHT22;23489;49.600;6.138;2024-01-27T13:32:39;6.70;99.90
37646;DHT22;23489;49.600;6.138;2024-01-27T13:35:05;6.70;99.90
37646;DHT22;23489;49.600;6.138;2024-01-27T13:37:33;6.70;99.90
37646;DHT22;23489;49.600;6.138;2024-01-27T13:40:03;6.70;99.90
37646;DHT22;23489;49.600;6.138;2024-01-27T13:42:29;6.70;99.90
37646;DHT22;23489;49.600;6.138;2024-01-27T13:44:55;6.70;99.90
37646;DHT22;23489;49.600;6.138;2024-01-27T13:47:20;6.70;99.90
37646;DHT22;23489;49.600;6.138;2024-01-27T13:49:46;6.80;99.90
37646;DHT22;23489;49.600;6.138;2024-01-27T13:52:12;6.80;99.90
37646;DHT22;23489;49.600;6.138;2024-01-27T13:54:37;6.90;99.90
37646;DHT22;23489;49.600;6.138;2024-01-27T13:57:03;6.90;99.90
37646;DHT22;23489;49.600;6.138;2024-01-27T13:59:29;6.90;99.90
37646;DHT22;23489;49.600;6.138;2024-01-27T14:01:55;6.90;99.90
37646;DHT22;23489;49.600;6.138;2024-01-27T14:04:22;6.90;99.90
37646;DHT22;23489;49.600;6.138;2024-01-27T14:06:53;6.90;99.90
37646;DHT22;23489;49.600;6.138;2024-01-27T14:09:21;6.90;99.90
37646;DHT22;23489;49.600;6.138;2024-01-27T14:11:47;6.80;99.90
37646;DHT22;23489;49.600;6.138;2024-01-27T14:14:13;6.80;99.90
37646;DHT22;23489;49.600;6.138;2024-01-27T14:16:39;6.80;99.90
37646;DHT22;23489;49.600;6.138;2024-01-27T14:19:05;6.70;99.90
37646;DHT22;23489;49.600;6.138;2024-01-27T14:21:32;6.70;99.90
37646;DHT22;23489;49.600;6.138;2024-01-27T14:23:57;6.70;99.90
37646;DHT22;23489;49.600;6.138;2024-01-27T14:26:43;6.70;99.90
37646;DHT22;23489;49.600;6.138;2024-01-27T14:29:17;6.60;99.90
37646;DHT22;23489;49.600;6.138;2024-01-27T14:31:43;6.70;99.90
37646;DHT22;23489;49.600;6.138;2024-01-27T14:34:09;6.60;99.90
37646;DHT22;23489;49.600;6.138;2024-01-27T14:36:39;6.50;99.90
37646;DHT22;23489;49.600;6.138;2024-01-27T14:39:04;6.50;99.90
37646;DHT22;23489;49.600;6.138;2024-01-27T14:41:30;6.50;99.90
37646;DHT22;23489;49.600;6.138;2024-01-27T14:43:56;6.50;99.90
37646;DHT22;23489;49.600;6.138;2024-01-27T14:46:22;6.50;99.90
37646;DHT22;23489;49.600;6.138;2024-01-27T14:48:48;6.50;99.90
37646;DHT22;23489;49.600;6.138;2024-01-27T14:51:14;6.50;99.90
37646;DHT22;23489;49.600;6.138;2024-01-27T14:53:40;6.50;99.90
37646;DHT22;23489;49.600;6.138;2024-01-27T14:56:06;6.50;99.90
37646;DHT22;23489;49.600;6.138;2024-01-27T14:58:31;6.50;99.90
37646;DHT22;23489;49.600;6.138;2024-01-27T15:00:57;6.50;99.90
37646;DHT22;23489;49.600;6.138;2024-01-27T15:03:23;6.50;99.90
37646;DHT22;23489;49.600;6.138;2024-01-27T15:05:49;6.50;99.90
37646;DHT22;23489;49.600;6.138;2024-01-27T15:08:19;6.50;99.90
37646;DHT22;23489;49.600;6.138;2024-01-27T15:10:44;6.50;99.90
37646;DHT22;23489;49.600;6.138;2024-01-27T15:13:11;6.50;99.90
37646;DHT22;23489;49.600;6.138;2024-01-27T15:15:38;6.50;99.90
37646;DHT22;23489;49.600;6.138;2024-01-27T15:18:04;6.50;99.90
37646;DHT22;23489;49.600;6.138;2024-01-27T15:20:31;6.50;99.90
37646;DHT22;23489;49.600;6.138;2024-01-27T15:22:56;6.60;99.90
37646;DHT22;23489;49.600;6.138;2024-01-27T15:25:22;6.50;99.90
37646;DHT22;23489;49.600;6.138;2024-01-27T15:27:48;6.50;99.90
37646;DHT22;23489;49.600;6.138;2024-01-27T15:30:16;6.40;99.90
37646;DHT22;23489;49.600;6.138;2024-01-27T15:32:42;6.40;99.90
37646;DHT22;23489;49.600;6.138;2024-01-27T15:35:08;6.30;99.90
37646;DHT22;23489;49.600;6.138;2024-01-27T15:37:33;6.30;99.90
37646;DHT22;23489;49.600;6.138;2024-01-27T15:39:59;6.20;99.90
37646;DHT22;23489;49.600;6.138;2024-01-27T15:42:25;6.20;99.90
37646;DHT22;23489;49.600;6.138;2024-01-27T15:44:50;6.20;99.90
37646;DHT22;23489;49.600;6.138;2024-01-27T15:47:16;6.10;99.90
37646;DHT22;23489;49.600;6.138;2024-01-27T15:49:42;6.10;99.90
37646;DHT22;23489;49.600;6.138;2024-01-27T15:52:08;6.00;99.90
37646;DHT22;23489;49.600;6.138;2024-01-27T15:54:34;6.00;99.90